createdAt,value
2018-04-15T00:00:42.182Z,69.77
2018-04-15T00:03:08.432Z,65.77
2018-04-15T00:05:34.537Z,65.90
2018-04-15T00:08:00.635Z,68.90
2018-04-15T00:10:27.658Z,68.23
2018-04-15T00:12:53.756Z,67.37
2018-04-15T00:15:19.841Z,67.03
2018-04-15T00:17:46.737Z,70.67
2018-04-15T00:20:12.907Z,73.70
2018-04-15T00:22:38.998Z,79.23
2018-04-15T00:25:05.065Z,82.60
2018-04-15T00:27:31.182Z,93.57
2018-04-15T00:29:57.494Z,98.00
2018-04-15T00:32:24.522Z,94.90
2018-04-15T00:34:51.011Z,91.80
2018-04-15T00:37:17.538Z,85.17
2018-04-15T00:39:44.111Z,82.97
2018-04-15T00:42:10.305Z,80.77
2018-04-15T00:44:36.399Z,78.07
2018-04-15T00:47:02.538Z,72.53
2018-04-15T00:49:28.694Z,72.10
2018-04-15T00:51:54.849Z,69.73
2018-04-15T00:54:20.957Z,69.93
2018-04-15T00:56:47.080Z,70.90
2018-04-15T00:59:13.215Z,73.77
2018-04-15T01:01:39.367Z,84.40
2018-04-15T01:04:05.827Z,88.70
2018-04-15T01:06:31.948Z,100.23
2018-04-15T01:08:58.050Z,102.37
2018-04-15T01:11:24.141Z,101.57
2018-04-15T01:13:50.205Z,107.93
2018-04-15T01:16:17.168Z,104.33
2018-04-15T01:18:43.271Z,98.47
2018-04-15T01:21:09.393Z,97.20
2018-04-15T01:23:35.469Z,96.07
2018-04-15T01:26:01.566Z,97.87
2018-04-15T01:28:27.744Z,96.77
2018-04-15T01:30:53.813Z,91.73
2018-04-15T01:33:19.902Z,90.47
2018-04-15T01:35:45.985Z,88.77
2018-04-15T01:38:12.063Z,89.57
2018-04-15T01:40:38.160Z,88.27
2018-04-15T01:43:04.227Z,92.63
2018-04-15T01:45:30.307Z,94.20
2018-04-15T01:47:56.524Z,96.80
2018-04-15T01:50:22.592Z,91.57
2018-04-15T01:52:48.654Z,96.10
2018-04-15T01:55:15.763Z,100.70
2018-04-15T01:57:41.844Z,105.40
2018-04-15T02:00:07.946Z,96.20
2018-04-15T02:02:34.035Z,91.97
2018-04-15T02:05:00.856Z,88.90
2018-04-15T02:07:26.931Z,91.43
2018-04-15T02:09:53.835Z,93.83
2018-04-15T02:12:20.172Z,89.30
2018-04-15T02:14:46.269Z,89.17
2018-04-15T02:17:13.174Z,87.50
2018-04-15T02:19:39.287Z,87.23
2018-04-15T02:22:05.415Z,94.00
2018-04-15T02:24:31.611Z,94.87
2018-04-15T02:26:58.296Z,99.40
2018-04-15T02:29:24.432Z,97.47
2018-04-15T02:31:51.326Z,103.43
2018-04-15T02:34:17.450Z,104.10
2018-04-15T02:36:43.510Z,102.27
2018-04-15T02:39:09.640Z,98.13
2018-04-15T02:41:35.735Z,93.50
2018-04-15T02:44:02.608Z,83.13
2018-04-15T02:46:28.699Z,64.87
2018-04-15T02:48:54.783Z,61.10
2018-04-15T02:51:20.867Z,53.40
2018-04-15T02:53:46.958Z,50.80
2018-04-15T02:56:13.092Z,49.63
2018-04-15T02:58:39.160Z,51.17
2018-04-15T03:01:05.282Z,48.40
2018-04-15T03:03:31.354Z,49.57
2018-04-15T03:05:57.557Z,49.07
2018-04-15T03:08:23.676Z,47.33
2018-04-15T03:10:50.154Z,48.10
2018-04-15T03:13:16.251Z,47.80
2018-04-15T03:15:42.444Z,46.63
2018-04-15T03:18:08.543Z,44.93
2018-04-15T03:20:34.661Z,46.63
2018-04-15T03:23:01.526Z,45.83
2018-04-15T03:25:28.343Z,46.10
2018-04-15T03:27:54.446Z,48.37
2018-04-15T03:30:20.555Z,43.50
2018-04-15T03:32:47.430Z,46.00
2018-04-15T03:35:13.549Z,46.40
2018-04-15T03:40:34.112Z,47.90
2018-04-15T03:43:00.270Z,46.90
2018-04-15T03:45:26.390Z,45.70
2018-04-15T03:47:52.480Z,45.73
2018-04-15T03:50:18.679Z,46.67
2018-04-15T03:52:44.767Z,46.17
2018-04-15T03:55:11.582Z,48.73
2018-04-15T03:57:37.696Z,45.83
2018-04-15T04:00:03.772Z,48.77
2018-04-15T04:02:29.906Z,46.27
2018-04-15T04:04:56.651Z,46.97
2018-04-15T04:07:22.755Z,47.10
2018-04-15T04:09:48.838Z,48.00
2018-04-15T04:12:14.950Z,46.27
2018-04-15T04:14:41.333Z,47.37
2018-04-15T04:17:07.408Z,50.37
2018-04-15T04:19:45.921Z,46.10
2018-04-15T04:22:24.295Z,47.00
2018-04-15T04:24:57.543Z,47.03
2018-04-15T04:27:24.424Z,46.90
2018-04-15T04:29:50.493Z,47.00
2018-04-15T04:32:17.656Z,46.00
2018-04-15T04:34:43.723Z,46.43
2018-04-15T04:37:09.802Z,43.57
2018-04-15T04:39:35.963Z,45.20
2018-04-15T04:42:02.067Z,43.63
2018-04-15T04:44:28.227Z,42.70
2018-04-15T04:46:54.375Z,45.03
2018-04-15T04:49:20.495Z,46.57
2018-04-15T04:51:46.751Z,46.10
2018-04-15T04:54:12.894Z,48.03
2018-04-15T04:56:39.020Z,47.40
2018-04-15T04:59:05.154Z,44.83
2018-04-15T05:01:31.272Z,44.60
2018-04-15T05:03:57.399Z,42.73
2018-04-15T05:06:24.280Z,43.60
2018-04-15T05:08:50.367Z,41.60
2018-04-15T05:11:16.462Z,41.60
2018-04-15T05:13:42.591Z,42.63
2018-04-15T05:16:08.695Z,41.33
2018-04-15T05:18:34.858Z,40.50
2018-04-15T05:21:01.011Z,39.60
2018-04-15T05:23:27.205Z,39.83
2018-04-15T05:25:53.366Z,42.00
2018-04-15T05:28:20.258Z,39.20
2018-04-15T05:30:46.470Z,40.97
2018-04-15T05:33:12.566Z,41.43
2018-04-15T05:35:38.679Z,41.60
2018-04-15T05:38:04.763Z,41.20
2018-04-15T05:40:31.630Z,40.57
2018-04-15T05:42:58.514Z,39.30
2018-04-15T05:45:24.668Z,40.57
2018-04-15T05:47:50.777Z,39.13
2018-04-15T05:50:16.938Z,36.87
2018-04-15T05:52:43.084Z,37.17
2018-04-15T05:55:09.207Z,37.13
2018-04-15T05:57:35.286Z,38.00
2018-04-15T06:00:01.392Z,38.47
2018-04-15T06:02:27.577Z,37.63
2018-04-15T06:04:53.763Z,38.87
2018-04-15T06:07:19.896Z,38.10
2018-04-15T06:09:46.021Z,37.37
2018-04-15T06:12:12.176Z,38.40
2018-04-15T06:14:38.307Z,37.30
2018-04-15T06:17:04.428Z,36.00
2018-04-15T06:19:31.253Z,34.97
2018-04-15T06:21:57.473Z,32.90
2018-04-15T06:24:23.538Z,32.67
2018-04-15T06:26:49.740Z,34.93
2018-04-15T06:29:15.855Z,34.10
2018-04-15T06:31:41.959Z,31.30
2018-04-15T06:34:08.799Z,34.20
2018-04-15T06:36:34.871Z,34.10
2018-04-15T06:39:01.818Z,34.77
2018-04-15T06:41:28.648Z,31.30
2018-04-15T06:43:54.734Z,33.93
2018-04-15T06:46:20.868Z,33.63
2018-04-15T06:48:47.019Z,31.30
2018-04-15T06:51:13.140Z,31.67
2018-04-15T06:53:39.252Z,30.80
2018-04-15T06:56:05.423Z,30.70
2018-04-15T06:58:31.503Z,29.10
2018-04-15T07:00:57.646Z,27.87
2018-04-15T07:03:23.757Z,28.87
2018-04-15T07:05:51.014Z,29.67
2018-04-15T07:08:17.227Z,29.17
2018-04-15T07:10:43.400Z,27.40
2018-04-15T07:13:09.507Z,26.47
2018-04-15T07:15:35.615Z,27.70
2018-04-15T07:18:02.775Z,25.93
2018-04-15T07:20:28.955Z,24.03
2018-04-15T07:22:55.083Z,23.73
2018-04-15T07:25:21.924Z,22.90
2018-04-15T07:27:48.841Z,23.87
2018-04-15T07:30:14.973Z,22.20
2018-04-15T07:32:41.172Z,20.70
2018-04-15T07:35:08.061Z,22.90
2018-04-15T07:37:34.219Z,19.07
2018-04-15T07:40:00.352Z,19.90
2018-04-15T07:42:26.543Z,20.70
2018-04-15T07:44:53.139Z,26.27
2018-04-15T07:47:19.251Z,20.60
2018-04-15T07:49:45.356Z,19.53
2018-04-15T07:52:12.216Z,18.80
2018-04-15T07:54:39.095Z,17.40
2018-04-15T07:57:05.242Z,18.03
2018-04-15T07:59:31.352Z,18.80
2018-04-15T08:01:58.218Z,18.13
2018-04-15T08:04:24.403Z,18.30
2018-04-15T08:06:50.563Z,17.40
2018-04-15T08:09:16.767Z,18.00
2018-04-15T08:11:42.856Z,17.70
2018-04-15T08:14:09.767Z,17.43
2018-04-15T08:16:35.904Z,16.50
2018-04-15T08:19:02.036Z,20.00
2018-04-15T08:21:28.211Z,17.50
2018-04-15T08:23:54.412Z,16.47
2018-04-15T08:26:20.511Z,16.87
2018-04-15T08:28:47.416Z,15.60
2018-04-15T08:31:14.511Z,15.33
2018-04-15T08:33:41.047Z,14.70
2018-04-15T08:36:07.327Z,17.47
2018-04-15T08:38:33.419Z,18.47
2018-04-15T08:40:59.565Z,14.50
2018-04-15T08:43:25.671Z,13.07
2018-04-15T08:45:51.823Z,13.57
2018-04-15T08:48:17.938Z,15.23
2018-04-15T08:50:44.063Z,14.97
2018-04-15T08:53:10.178Z,21.17
2018-04-15T08:55:37.083Z,10.87
2018-04-15T08:58:04.995Z,13.13
2018-04-15T09:00:32.997Z,12.67
2018-04-15T09:03:00.835Z,13.83
2018-04-15T09:05:28.737Z,10.10
2018-04-15T09:07:56.789Z,10.90
2018-04-15T09:10:24.799Z,9.70
2018-04-15T09:12:52.806Z,10.07
2018-04-15T09:15:20.726Z,8.30
2018-04-15T09:17:48.648Z,8.43
2018-04-15T09:20:16.603Z,8.93
2018-04-15T09:22:44.507Z,8.33
2018-04-15T09:25:12.462Z,8.67
2018-04-15T09:27:40.338Z,8.40
2018-04-15T09:30:08.289Z,8.40
2018-04-15T09:32:36.185Z,9.00
2018-04-15T09:35:04.149Z,8.90
2018-04-15T09:37:32.066Z,7.80
2018-04-15T09:39:59.998Z,8.23
2018-04-15T09:42:27.969Z,6.77
2018-04-15T09:44:56.907Z,8.80
2018-04-15T09:47:24.805Z,6.90
2018-04-15T09:49:52.711Z,7.80
2018-04-15T09:52:20.676Z,9.70
2018-04-15T09:54:48.527Z,7.27
2018-04-15T09:57:16.434Z,7.77
2018-04-15T09:59:44.279Z,7.10
2018-04-15T10:02:12.115Z,7.47
2018-04-15T10:04:40.079Z,7.37
2018-04-15T10:07:07.927Z,7.30
2018-04-15T10:09:35.803Z,7.60
2018-04-15T10:12:03.725Z,7.77
2018-04-15T10:14:31.591Z,7.73
2018-04-15T10:17:00.242Z,10.20
2018-04-15T10:19:29.120Z,7.20
2018-04-15T10:21:57.059Z,8.00
2018-04-15T10:24:24.947Z,7.00
2018-04-15T10:26:52.851Z,6.07
2018-04-15T10:29:20.816Z,5.80
2018-04-15T10:31:48.670Z,6.10
2018-04-15T10:34:16.580Z,5.70
2018-04-15T10:36:44.430Z,5.57
2018-04-15T10:39:12.315Z,5.43
2018-04-15T10:41:40.223Z,6.37
2018-04-15T10:44:08.193Z,5.57
2018-04-15T10:46:36.051Z,7.20
2018-04-15T10:49:03.950Z,4.90
2018-04-15T10:51:31.866Z,18.43
2018-04-15T10:53:59.719Z,5.37
2018-04-15T10:56:32.793Z,4.57
2018-04-15T10:59:00.776Z,5.43
2018-04-15T11:01:28.610Z,5.20
2018-04-15T11:03:56.482Z,4.87
2018-04-15T11:06:24.314Z,4.87
2018-04-15T11:08:52.182Z,4.20
2018-04-15T11:11:20.101Z,4.93
2018-04-15T11:13:47.962Z,4.03
2018-04-15T11:16:15.804Z,4.10
2018-04-15T11:18:43.695Z,3.67
2018-04-15T11:21:11.538Z,3.70
2018-04-15T11:23:39.434Z,3.50
2018-04-15T11:26:07.374Z,3.30
2018-04-15T11:28:35.222Z,3.40
2018-04-15T11:31:03.070Z,4.00
2018-04-15T11:33:30.942Z,3.10
2018-04-15T11:35:58.774Z,3.60
2018-04-15T11:38:26.647Z,3.93
2018-04-15T11:40:54.534Z,4.07
2018-04-15T11:43:22.663Z,4.30
2018-04-15T11:45:50.580Z,4.40
2018-04-15T11:48:18.423Z,6.93
2018-04-15T11:50:46.290Z,3.70
2018-04-15T11:53:14.142Z,3.57
2018-04-15T11:55:41.999Z,2.87
2018-04-15T11:58:10.687Z,3.50
2018-04-15T12:00:38.594Z,3.93
2018-04-15T12:03:07.163Z,5.60
2018-04-15T12:05:35.165Z,6.90
2018-04-15T12:08:03.019Z,13.33
2018-04-15T12:10:45.907Z,6.13
2018-04-15T12:13:13.880Z,2.90
2018-04-15T12:15:42.719Z,3.30
2018-04-15T12:18:10.681Z,3.87
2018-04-15T12:20:38.659Z,3.50
2018-04-15T12:23:06.535Z,4.03
2018-04-15T12:25:34.470Z,2.90
2018-04-15T12:28:02.390Z,3.23
2018-04-15T12:30:30.356Z,3.23
2018-04-15T12:32:58.266Z,3.10
2018-04-15T12:35:26.138Z,2.70
2018-04-15T12:37:54.106Z,2.70
2018-04-15T12:40:21.946Z,2.70
2018-04-15T12:42:49.936Z,3.80
2018-04-15T12:45:17.825Z,2.20
2018-04-15T12:47:45.670Z,2.00
2018-04-15T12:50:13.600Z,1.97
2018-04-15T12:52:41.471Z,3.07
2018-04-15T12:55:09.351Z,2.37
2018-04-15T12:57:37.257Z,3.23
2018-04-15T13:00:05.101Z,4.00
2018-04-15T13:02:32.944Z,3.30
2018-04-15T13:05:03.036Z,2.60
2018-04-15T13:07:30.867Z,3.20
2018-04-15T13:09:58.720Z,3.07
2018-04-15T13:12:26.656Z,2.70
2018-04-15T13:14:54.645Z,3.20
2018-04-15T13:17:22.502Z,3.07
2018-04-15T13:19:50.370Z,4.93
2018-04-15T13:22:18.208Z,3.00
2018-04-15T13:24:46.084Z,4.90
2018-04-15T13:27:13.910Z,2.60
2018-04-15T13:29:41.756Z,3.53
2018-04-15T13:32:09.612Z,3.10
2018-04-15T13:34:37.956Z,5.10
2018-04-15T13:37:05.992Z,2.53
2018-04-15T13:39:33.890Z,3.20
2018-04-15T13:42:01.738Z,2.00
2018-04-15T13:44:29.722Z,2.80
2018-04-15T13:46:57.630Z,2.50
2018-04-15T13:49:25.495Z,4.10
2018-04-15T13:51:53.355Z,2.30
2018-04-15T13:54:21.273Z,3.40
2018-04-15T13:56:49.120Z,3.03
2018-04-15T13:59:17.038Z,3.73
2018-04-15T14:01:45.068Z,3.30
2018-04-15T14:04:12.929Z,3.17
2018-04-15T14:06:41.923Z,3.70
2018-04-15T14:09:09.777Z,4.67
2018-04-15T14:11:37.670Z,3.90
2018-04-15T14:14:05.536Z,3.70
2018-04-15T14:16:33.378Z,3.90
2018-04-15T14:19:01.252Z,3.80
2018-04-15T14:21:29.135Z,3.53
2018-04-15T14:23:57.472Z,2.60
2018-04-15T14:26:25.648Z,3.27
2018-04-15T14:28:53.733Z,4.63
2018-04-15T14:31:21.606Z,2.70
2018-04-15T14:33:49.478Z,3.10
2018-04-15T14:36:17.359Z,2.83
2018-04-15T14:38:45.224Z,3.57
2018-04-15T14:41:13.135Z,3.27
2018-04-15T14:43:41.050Z,2.60
2018-04-15T14:46:08.907Z,3.57
2018-04-15T14:48:36.822Z,3.03
2018-04-15T14:51:04.651Z,2.43
2018-04-15T14:53:32.546Z,4.33
2018-04-15T14:56:00.431Z,2.57
2018-04-15T14:58:28.279Z,2.73
2018-04-15T15:00:56.193Z,2.90
2018-04-15T15:03:24.042Z,3.70
2018-04-15T15:05:51.906Z,2.77
2018-04-15T15:08:19.799Z,2.50
2018-04-15T15:10:47.658Z,2.80
2018-04-15T15:13:15.552Z,7.53
2018-04-15T15:15:42.760Z,4.83
2018-04-15T15:18:08.913Z,4.00
2018-04-15T15:20:35.044Z,4.93
2018-04-15T15:23:01.147Z,3.73
2018-04-15T15:25:27.999Z,7.40
2018-04-15T15:27:54.872Z,5.40
2018-04-15T15:30:20.951Z,3.30
2018-04-15T15:32:47.104Z,2.60
2018-04-15T15:35:13.209Z,4.67
2018-04-15T15:37:39.321Z,3.20
2018-04-15T15:40:05.444Z,2.87
2018-04-15T15:42:31.623Z,3.70
2018-04-15T15:44:57.748Z,3.30
2018-04-15T15:47:23.898Z,3.50
2018-04-15T15:49:50.028Z,3.37
2018-04-15T15:52:16.153Z,2.87
2018-04-15T15:54:42.266Z,4.63
2018-04-15T15:57:09.095Z,6.17
2018-04-15T15:59:35.252Z,3.47
2018-04-15T16:02:01.407Z,2.73
2018-04-15T16:04:28.245Z,4.60
2018-04-15T16:06:54.342Z,3.70
2018-04-15T16:09:21.454Z,2.80
2018-04-15T16:11:48.324Z,2.60
2018-04-15T16:14:14.419Z,4.57
2018-04-15T16:16:40.527Z,4.13
2018-04-15T16:19:06.628Z,4.07
2018-04-15T16:21:33.468Z,3.40
2018-04-15T16:23:59.591Z,4.10
2018-04-15T16:26:25.692Z,5.23
2018-04-15T16:28:51.784Z,4.53
2018-04-15T16:31:17.904Z,3.07
2018-04-15T16:33:43.996Z,3.73
2018-04-15T16:36:10.102Z,4.50
2018-04-15T16:38:36.985Z,5.90
2018-04-15T16:41:03.123Z,5.80
2018-04-15T16:43:29.323Z,6.13
2018-04-15T16:45:55.407Z,7.30
2018-04-15T16:48:21.540Z,3.57
2018-04-15T16:50:47.679Z,3.47
2018-04-15T16:53:13.747Z,4.30
2018-04-15T16:55:39.958Z,4.80
2018-04-15T16:58:06.067Z,4.80
2018-04-15T17:00:32.142Z,7.10
2018-04-15T17:02:58.214Z,4.90
2018-04-15T17:05:25.765Z,7.27
2018-04-15T17:07:51.892Z,7.03
2018-04-15T17:10:17.988Z,7.70
2018-04-15T17:12:44.835Z,5.30
2018-04-15T17:15:10.923Z,6.33
2018-04-15T17:17:37.002Z,6.47
2018-04-15T17:20:03.138Z,5.93
2018-04-15T17:22:29.299Z,5.90
2018-04-15T17:24:55.378Z,5.43
2018-04-15T17:27:21.515Z,6.40
2018-04-15T17:29:47.615Z,5.67
2018-04-15T17:32:15.537Z,6.37
2018-04-15T17:34:43.428Z,6.33
2018-04-15T17:37:11.280Z,7.40
2018-04-15T17:39:39.168Z,8.97
2018-04-15T17:42:07.043Z,7.90
2018-04-15T17:44:34.969Z,7.53
2018-04-15T17:47:02.896Z,8.57
2018-04-15T17:49:30.840Z,9.23
2018-04-15T17:51:57.670Z,12.13
2018-04-15T17:54:23.776Z,10.40
2018-04-15T17:56:49.915Z,13.87
2018-04-15T17:59:16.006Z,39.60
2018-04-15T18:01:42.119Z,10.23
2018-04-15T18:04:08.259Z,11.17
2018-04-15T18:06:34.423Z,13.40
2018-04-15T18:09:00.532Z,13.87
2018-04-15T18:11:27.072Z,17.07
2018-04-15T18:13:53.308Z,13.53
2018-04-15T18:16:19.403Z,14.13
2018-04-15T18:18:46.254Z,13.70
2018-04-15T18:21:13.082Z,15.20
2018-04-15T18:23:39.169Z,17.37
2018-04-15T18:26:05.449Z,14.43
2018-04-15T18:28:31.573Z,16.10
2018-04-15T18:30:59.439Z,16.90
2018-04-15T18:33:25.551Z,20.40
2018-04-15T18:35:51.671Z,26.30
2018-04-15T18:38:19.580Z,28.53
2018-04-15T18:40:47.434Z,23.60
2018-04-15T18:43:14.662Z,22.00
2018-04-15T18:45:40.831Z,21.03
2018-04-15T18:48:06.986Z,22.47
2018-04-15T18:50:33.899Z,21.90
2018-04-15T18:53:00.236Z,27.10
2018-04-15T18:55:26.503Z,25.07
2018-04-15T18:57:52.721Z,21.67
2018-04-15T19:00:18.908Z,24.87
2018-04-15T19:02:45.820Z,48.60
2018-04-15T19:05:11.969Z,23.23
2018-04-15T19:07:38.167Z,26.37
2018-04-15T19:10:04.305Z,25.30
2018-04-15T19:12:30.421Z,21.40
2018-04-15T19:14:57.334Z,20.03
2018-04-15T19:17:23.537Z,33.57
2018-04-15T19:19:49.731Z,21.63
2018-04-15T19:22:15.889Z,38.37
2018-04-15T19:24:42.736Z,23.20
2018-04-15T19:27:08.835Z,31.30
2018-04-15T19:29:34.961Z,21.70
2018-04-15T19:32:01.076Z,17.67
2018-04-15T19:34:28.247Z,19.03
2018-04-15T19:36:56.095Z,28.27
2018-04-15T19:39:23.927Z,146.07
2018-04-15T19:41:50.052Z,35.17
2018-04-15T19:44:16.209Z,40.23
2018-04-15T19:46:42.366Z,23.23
2018-04-15T19:49:08.460Z,48.23
2018-04-15T19:51:34.551Z,18.93
2018-04-15T19:54:00.662Z,50.53
2018-04-15T19:56:26.774Z,28.60
2018-04-15T19:58:52.892Z,24.00
2018-04-15T20:01:19.713Z,44.77
2018-04-15T20:03:45.795Z,27.13
2018-04-15T20:06:11.931Z,30.87
2018-04-15T20:08:38.080Z,36.83
2018-04-15T20:11:04.296Z,16.40
2018-04-15T20:13:30.461Z,14.63
2018-04-15T20:15:56.746Z,18.93
2018-04-15T20:18:22.924Z,12.20
2018-04-15T20:20:49.099Z,21.47
2018-04-15T20:23:15.203Z,11.50
2018-04-15T20:25:42.080Z,13.40
2018-04-15T20:28:08.512Z,11.67
2018-04-15T20:30:35.688Z,19.30
2018-04-15T20:33:02.191Z,11.73
2018-04-15T20:35:28.323Z,12.33
2018-04-15T20:37:54.456Z,14.03
2018-04-15T20:40:20.660Z,11.90
2018-04-15T20:42:47.199Z,12.30
2018-04-15T20:45:13.459Z,11.03
2018-04-15T20:47:39.656Z,10.90
2018-04-15T20:50:05.790Z,10.70
2018-04-15T20:52:31.884Z,11.10
2018-04-15T20:54:58.023Z,11.40
2018-04-15T20:57:25.002Z,11.50
2018-04-15T20:59:51.139Z,10.83
2018-04-15T21:02:17.244Z,10.83
2018-04-15T21:04:43.389Z,12.27
2018-04-15T21:07:09.523Z,13.43
2018-04-15T21:09:35.648Z,15.43
2018-04-15T21:12:01.783Z,11.73
2018-04-15T21:14:27.927Z,12.43
2018-04-15T21:16:54.067Z,13.13
2018-04-15T21:19:20.192Z,12.00
2018-04-15T21:21:46.297Z,12.77
2018-04-15T21:24:12.515Z,13.70
2018-04-15T21:26:38.694Z,13.97
2018-04-15T21:29:05.585Z,15.03
2018-04-15T21:31:31.675Z,14.50
2018-04-15T21:33:59.580Z,13.47
2018-04-15T21:36:25.741Z,14.20
2018-04-15T21:38:51.876Z,14.90
2018-04-15T21:41:18.017Z,15.40
2018-04-15T21:43:44.165Z,16.60
2018-04-15T21:46:10.426Z,16.20
2018-04-15T21:48:36.576Z,14.90
2018-04-15T21:51:03.650Z,15.60
2018-04-15T21:53:30.534Z,16.47
2018-04-15T21:55:56.695Z,15.47
2018-04-15T21:58:22.808Z,16.00
2018-04-15T22:00:48.960Z,16.50
2018-04-15T22:03:15.101Z,16.40
2018-04-15T22:05:41.289Z,15.60
2018-04-15T22:08:07.413Z,16.67
2018-04-15T22:10:33.520Z,15.73
2018-04-15T22:13:10.676Z,16.43
2018-04-15T22:15:37.525Z,16.67
2018-04-15T22:18:03.660Z,17.43
2018-04-15T22:20:30.023Z,18.17
2018-04-15T22:22:57.272Z,17.20
2018-04-15T22:25:23.808Z,16.87
2018-04-15T22:27:50.974Z,16.87
2018-04-15T22:30:18.195Z,15.93
2018-04-15T22:32:45.185Z,17.77
2018-04-15T22:35:12.324Z,16.90
2018-04-15T22:37:40.731Z,17.57
2018-04-15T22:40:06.843Z,17.27
2018-04-15T22:42:33.253Z,17.80
2018-04-15T22:44:59.399Z,18.90
2018-04-15T22:47:27.669Z,17.57
2018-04-15T22:49:59.747Z,17.57
2018-04-15T22:52:26.061Z,19.07
2018-04-15T22:55:00.659Z,20.07
2018-04-15T22:57:26.810Z,20.77
2018-04-15T22:59:53.034Z,19.57
2018-04-15T23:02:19.156Z,20.40
2018-04-15T23:04:45.411Z,18.60
2018-04-15T23:07:11.533Z,18.63
2018-04-15T23:09:37.870Z,20.57
2018-04-15T23:12:04.003Z,20.50
2018-04-15T23:14:31.026Z,19.60
2018-04-15T23:16:58.119Z,21.73
2018-04-15T23:19:24.236Z,20.57
2018-04-15T23:21:50.883Z,20.93
2018-04-15T23:24:17.895Z,22.73
2018-04-15T23:26:44.148Z,22.23
2018-04-15T23:29:10.395Z,21.40
2018-04-15T23:31:36.501Z,26.07
2018-04-15T23:34:02.641Z,21.57
2018-04-15T23:36:28.890Z,22.73
2018-04-15T23:38:55.064Z,21.20
2018-04-15T23:41:21.275Z,23.47
2018-04-15T23:43:48.179Z,23.47
2018-04-15T23:46:15.133Z,22.47
2018-04-15T23:48:41.403Z,23.67
2018-04-15T23:51:07.614Z,23.17
2018-04-15T23:53:33.839Z,24.27
2018-04-15T23:56:00.133Z,23.03
2018-04-15T23:58:26.289Z,24.37
